Estación Meteorológica Peña el Pijo (Robertgarden) [ 11/19/19 12:02:17 CET ]

Fecha Hora Presion(HPa) Temp (°C) Humedad % Rocio (°C) Viento ( m/s) Direccion Lluvia 1Hora(mm) Lluvia 24H(mm) LLuvia Total(mm)
2019-May-09 01:01:45 1006.800 15.8 69 10.2         318.05
2019-May-09 02:01:46 1006.400 15.3 72 10.3         318.05
2019-May-09 03:04:11 1006.500 14.7 77 10.7         318.05
2019-May-09 04:01:39 1006.300 14.2 79 10.6         318.05
2019-May-09 05:01:42 1006.200 14.7 77 10.7         318.05
2019-May-09 06:01:44 1006.300 14.6 77 10.6         318.05
2019-May-09 07:01:39 1006.300 14.5 78 10.7         318.05
2019-May-09 08:01:44 1006.900 14.2 77 10.2         318.05
2019-May-09 09:01:54 1007.100 14.5 77 10.5         318.05
2019-May-09 10:01:47 1007.100 15.6 73 10.8 2.5 N     318.05
2019-May-09 11:01:51 1006.900 18.2 62 10.8 3.8 WNW     318.05
2019-May-09 12:01:54 1007.300 21.9 52 11.6 1.7 N     318.05
2019-May-09 13:01:37 1007.700 22.5 50 11.5         318.05
2019-May-09 14:01:38 1007.600 23.7 46 11.3         318.05
2019-May-09 15:01:55 1007.500 22.5 50 11.5 2.7 WNW     318.05
2019-May-09 16:01:46 1007.600 24.6 45 11.8 3.7 N     318.05
2019-May-09 17:01:47 1007.200 24.1 44 11.0 2.0 NNE     318.05
2019-May-09 18:01:48 1007.200 22.8 47 10.8         318.05
2019-May-09 19:01:37 1006.900 22.4 47 10.5         318.05
2019-May-09 20:01:48 1007.100 20.1 52 9.9         318.05
2019-May-09 21:01:43 1007.300 17.9 58 9.5         318.05
2019-May-09 22:02:00 1007.800 15.8 66 9.5         318.05
2019-May-09 23:01:50 1008.100 14.1 71 8.9         318.05

Temperatura Máxima:24°    Temperatura Mínima:14°
Presión Máxima:1008.100 Hpa    Presión Mínima:1006.200 Hpa


Volver